createdAt,value
2018-03-25T00:02:06.076Z,15.67
2018-03-25T00:04:38.639Z,15.67
2018-03-25T00:07:11.235Z,14.53
2018-03-25T00:09:43.800Z,15.57
2018-03-25T00:12:16.355Z,16.20
2018-03-25T00:14:49.421Z,16.30
2018-03-25T00:17:22.224Z,15.47
2018-03-25T00:19:56.192Z,16.97
2018-03-25T00:22:28.764Z,17.00
2018-03-25T00:25:01.349Z,17.07
2018-03-25T00:27:34.715Z,16.63
2018-03-25T00:30:07.305Z,15.90
2018-03-25T00:32:39.852Z,17.47
2018-03-25T00:35:12.408Z,17.07
2018-03-25T00:37:44.966Z,16.77
2018-03-25T00:40:17.520Z,17.37
2018-03-25T00:42:50.104Z,18.90
2018-03-25T00:45:22.662Z,15.33
2018-03-25T00:47:55.217Z,18.10
2018-03-25T00:50:27.776Z,19.33
2018-03-25T00:53:00.350Z,17.33
2018-03-25T00:55:32.922Z,17.13
2018-03-25T00:58:05.503Z,17.87
2018-03-25T01:00:38.292Z,18.40
2018-03-25T01:03:10.914Z,16.67
2018-03-25T01:05:43.635Z,17.37
2018-03-25T01:08:16.196Z,21.57
2018-03-25T01:10:48.744Z,21.87
2018-03-25T01:13:21.329Z,21.93
2018-03-25T01:16:05.768Z,24.37
2018-03-25T01:18:38.346Z,19.60
2018-03-25T01:23:49.914Z,21.63
2018-03-25T01:26:22.462Z,22.03
2018-03-25T01:28:55.131Z,22.17
2018-03-25T01:31:27.724Z,22.03
2018-03-25T01:34:00.299Z,23.10
2018-03-25T01:36:33.160Z,21.23
2018-03-25T01:39:05.775Z,21.70
2018-03-25T01:41:38.309Z,22.53
2018-03-25T01:44:10.896Z,23.73
2018-03-25T01:46:43.464Z,23.67
2018-03-25T01:49:16.049Z,24.73
2018-03-25T01:51:48.619Z,23.17
2018-03-25T01:54:21.192Z,23.03
2018-03-25T01:56:53.750Z,24.33
2018-03-25T01:59:26.342Z,24.60
2018-03-25T02:01:58.891Z,24.23
2018-03-25T02:04:31.545Z,24.20
2018-03-25T02:07:04.135Z,24.17
2018-03-25T02:09:36.737Z,24.73
2018-03-25T02:12:09.321Z,24.37
2018-03-25T02:14:41.909Z,24.07
2018-03-25T02:17:14.501Z,24.53
2018-03-25T02:19:47.088Z,24.27
2018-03-25T02:24:58.363Z,27.27
2018-03-25T02:27:30.915Z,24.93
2018-03-25T02:30:03.501Z,27.37
2018-03-25T02:32:36.077Z,26.80
2018-03-25T02:37:47.665Z,26.07
2018-03-25T02:40:20.266Z,24.57
2018-03-25T02:42:52.861Z,24.77
2018-03-25T02:45:25.457Z,23.83
2018-03-25T02:47:58.024Z,26.50
2018-03-25T02:50:30.624Z,24.53
2018-03-25T02:53:03.182Z,25.17
2018-03-25T02:55:35.771Z,25.87
2018-03-25T02:58:08.323Z,23.13
2018-03-25T03:00:40.880Z,22.60
2018-03-25T03:03:13.429Z,21.57
2018-03-25T03:05:46.006Z,24.63
2018-03-25T03:08:18.554Z,25.83
2018-03-25T03:10:51.167Z,27.20
2018-03-25T03:13:23.750Z,24.60
2018-03-25T03:15:56.318Z,25.23
2018-03-25T03:18:28.900Z,26.03
2018-03-25T03:21:01.483Z,25.03
2018-03-25T03:23:34.069Z,25.73
2018-03-25T03:26:06.684Z,26.80
2018-03-25T03:28:39.219Z,25.43
2018-03-25T03:31:11.790Z,25.53
2018-03-25T03:33:44.375Z,28.10
2018-03-25T03:36:16.969Z,28.07
2018-03-25T03:38:49.546Z,26.60
2018-03-25T03:41:22.109Z,25.40
2018-03-25T03:43:54.675Z,24.17
2018-03-25T03:46:27.230Z,23.43
2018-03-25T03:48:59.834Z,26.57
2018-03-25T03:51:32.390Z,23.90
2018-03-25T03:54:04.955Z,27.37
2018-03-25T03:56:37.520Z,26.97
2018-03-25T03:59:10.093Z,26.77
2018-03-25T04:01:42.648Z,26.37
2018-03-25T04:04:15.245Z,26.73
2018-03-25T04:06:47.837Z,28.37
2018-03-25T04:09:20.410Z,25.27
2018-03-25T04:11:52.964Z,28.07
2018-03-25T04:14:25.569Z,28.73
2018-03-25T04:16:58.096Z,25.80
2018-03-25T04:19:30.703Z,29.77
2018-03-25T04:22:03.252Z,28.63
2018-03-25T04:24:35.834Z,28.77
2018-03-25T04:27:08.388Z,29.13
2018-03-25T04:29:40.930Z,28.80
2018-03-25T04:32:13.480Z,29.17
2018-03-25T04:34:46.053Z,28.30
2018-03-25T04:37:18.620Z,31.33
2018-03-25T04:39:51.191Z,30.87
2018-03-25T04:42:23.745Z,30.03
2018-03-25T04:44:56.322Z,29.57
2018-03-25T04:47:28.895Z,30.80
2018-03-25T04:50:01.467Z,30.37
2018-03-25T04:52:34.006Z,31.30
2018-03-25T04:55:06.597Z,30.17
2018-03-25T04:57:39.163Z,31.07
2018-03-25T05:00:11.742Z,30.53
2018-03-25T05:02:44.293Z,31.80
2018-03-25T05:05:16.867Z,30.60
2018-03-25T05:07:49.457Z,30.93
2018-03-25T05:10:22.028Z,31.57
2018-03-25T05:12:54.578Z,31.93
2018-03-25T05:15:27.186Z,32.40
2018-03-25T05:17:59.778Z,31.17
2018-03-25T05:20:32.377Z,29.03
2018-03-25T05:23:04.941Z,31.70
2018-03-25T05:25:37.516Z,29.00
2018-03-25T05:28:10.082Z,31.53
2018-03-25T05:30:43.606Z,33.17
2018-03-25T05:33:16.152Z,30.70
2018-03-25T05:35:48.720Z,33.10
2018-03-25T05:38:21.277Z,33.00
2018-03-25T05:40:53.839Z,31.07
2018-03-25T05:43:26.408Z,31.20
2018-03-25T05:45:59.001Z,30.97
2018-03-25T05:48:31.596Z,30.77
2018-03-25T05:51:04.145Z,30.90
2018-03-25T05:53:36.701Z,30.33
2018-03-25T05:56:09.303Z,31.50
2018-03-25T05:58:41.841Z,29.53
2018-03-25T06:01:14.424Z,31.00
2018-03-25T06:03:46.998Z,31.67
2018-03-25T06:06:19.605Z,30.70
2018-03-25T06:08:52.169Z,31.07
2018-03-25T06:11:24.741Z,31.03
2018-03-25T06:13:57.308Z,29.90
2018-03-25T06:16:29.877Z,29.60
2018-03-25T06:19:02.488Z,31.17
2018-03-25T06:21:35.056Z,30.70
2018-03-25T06:24:07.614Z,29.20
2018-03-25T06:26:40.187Z,29.07
2018-03-25T06:29:12.763Z,30.43
2018-03-25T06:31:45.364Z,31.17
2018-03-25T06:34:17.917Z,32.03
2018-03-25T06:36:50.482Z,29.13
2018-03-25T06:39:23.008Z,30.90
2018-03-25T06:41:55.550Z,30.77
2018-03-25T06:44:28.083Z,30.50
2018-03-25T06:47:00.652Z,30.27
2018-03-25T06:49:33.231Z,29.17
2018-03-25T06:52:05.776Z,29.80
2018-03-25T06:54:38.424Z,30.07
2018-03-25T06:57:11.002Z,31.73
2018-03-25T06:59:43.584Z,29.30
2018-03-25T07:02:16.149Z,31.27
2018-03-25T07:04:48.743Z,30.70
2018-03-25T07:07:21.295Z,29.40
2018-03-25T07:09:53.878Z,30.93
2018-03-25T07:12:26.460Z,31.90
2018-03-25T07:14:59.111Z,32.30
2018-03-25T07:17:31.667Z,30.83
2018-03-25T07:20:04.244Z,29.53
2018-03-25T07:22:36.820Z,29.53
2018-03-25T07:25:09.378Z,30.03
2018-03-25T07:27:42.842Z,30.80
2018-03-25T07:30:15.574Z,29.77
2018-03-25T07:32:48.162Z,29.27
2018-03-25T07:35:20.757Z,29.20
2018-03-25T07:37:53.312Z,29.17
2018-03-25T07:40:25.888Z,28.60
2018-03-25T07:43:00.153Z,28.27
2018-03-25T07:45:32.763Z,28.27
2018-03-25T07:48:05.301Z,30.17
2018-03-25T07:50:37.876Z,28.63
2018-03-25T07:53:10.464Z,28.43
2018-03-25T07:55:43.027Z,28.60
2018-03-25T07:58:15.579Z,28.20
2018-03-25T08:00:48.165Z,28.70
2018-03-25T08:03:20.723Z,29.63
2018-03-25T08:05:53.329Z,28.90
2018-03-25T08:08:25.888Z,29.40
2018-03-25T08:10:58.470Z,26.60
2018-03-25T08:13:32.632Z,27.80
2018-03-25T08:16:05.211Z,27.90
2018-03-25T08:18:37.795Z,26.63
2018-03-25T08:21:10.424Z,28.07
2018-03-25T08:23:42.994Z,28.60
2018-03-25T08:26:15.573Z,27.57
2018-03-25T08:28:48.127Z,28.53
2018-03-25T08:31:20.730Z,27.63
2018-03-25T08:33:53.333Z,27.70
2018-03-25T08:36:25.870Z,27.23
2018-03-25T08:38:58.386Z,25.67
2018-03-25T08:41:30.940Z,25.93
2018-03-25T08:44:03.461Z,25.73
2018-03-25T08:46:36.013Z,25.77
2018-03-25T08:49:08.587Z,24.43
2018-03-25T08:51:41.158Z,24.57
2018-03-25T08:54:13.735Z,24.50
2018-03-25T08:56:46.263Z,23.97
2018-03-25T08:59:18.792Z,21.73
2018-03-25T09:01:51.352Z,22.33
2018-03-25T09:04:23.886Z,21.20
2018-03-25T09:06:56.461Z,21.23
2018-03-25T09:09:29.008Z,21.33
2018-03-25T09:12:01.580Z,20.45
2018-03-25T09:14:34.128Z,21.43
2018-03-25T09:17:06.700Z,23.40
2018-03-25T09:19:39.227Z,22.50
2018-03-25T09:22:11.782Z,22.15
2018-03-25T09:24:44.306Z,20.10
2018-03-25T09:27:16.863Z,19.02
2018-03-25T09:29:49.417Z,21.00
2018-03-25T09:32:21.967Z,19.73
2018-03-25T09:34:54.491Z,17.97
2018-03-25T09:37:27.039Z,19.27
2018-03-25T09:39:59.587Z,16.13
2018-03-25T09:42:32.139Z,16.97
2018-03-25T09:45:04.676Z,16.27
2018-03-25T09:47:37.224Z,16.80
2018-03-25T09:50:09.751Z,16.93
2018-03-25T09:52:42.321Z,14.95
2018-03-25T09:55:14.843Z,16.37
2018-03-25T09:57:47.399Z,17.75
2018-03-25T10:03:32.795Z,17.37
2018-03-25T10:06:05.346Z,17.55
2018-03-25T10:08:37.899Z,17.45
2018-03-25T10:11:10.475Z,17.42
2018-03-25T10:13:43.042Z,17.52
2018-03-25T10:16:15.575Z,18.73
2018-03-25T10:18:48.128Z,18.23
2018-03-25T10:21:20.658Z,19.25
2018-03-25T10:23:53.205Z,18.90
2018-03-25T10:26:25.784Z,16.70
2018-03-25T10:28:58.320Z,17.87
2018-03-25T10:31:30.869Z,17.73
2018-03-25T10:34:03.424Z,19.52
2018-03-25T10:36:35.954Z,19.77
2018-03-25T10:39:08.494Z,19.92
2018-03-25T10:41:41.089Z,20.00
2018-03-25T10:44:13.645Z,19.75
2018-03-25T10:46:46.174Z,19.15
2018-03-25T10:49:18.743Z,19.42
2018-03-25T10:51:51.340Z,19.40
2018-03-25T10:54:23.891Z,17.12
2018-03-25T10:56:56.450Z,17.90
2018-03-25T10:59:29.042Z,19.62
2018-03-25T11:02:01.576Z,21.00
2018-03-25T11:04:34.156Z,19.50
2018-03-25T11:07:06.715Z,19.23
2018-03-25T11:09:39.298Z,18.17
2018-03-25T11:12:11.866Z,18.05
2018-03-25T11:14:44.459Z,18.75
2018-03-25T11:17:17.125Z,20.52
2018-03-25T11:19:49.644Z,20.48
2018-03-25T11:22:22.207Z,19.40
2018-03-25T11:24:54.749Z,19.35
2018-03-25T11:27:27.318Z,17.60
2018-03-25T11:29:59.862Z,17.27
2018-03-25T11:32:32.452Z,17.17
2018-03-25T11:35:05.003Z,17.60
2018-03-25T11:37:37.615Z,17.85
2018-03-25T11:40:10.220Z,18.12
2018-03-25T11:42:42.786Z,18.80
2018-03-25T11:45:15.330Z,19.12
2018-03-25T11:47:47.913Z,18.17
2018-03-25T11:50:20.481Z,19.02
2018-03-25T11:52:53.043Z,20.10
2018-03-25T11:55:25.592Z,18.87
2018-03-25T11:57:58.177Z,18.55
2018-03-25T12:00:30.724Z,19.83
2018-03-25T12:03:03.300Z,18.58
2018-03-25T12:05:35.844Z,18.87
2018-03-25T12:08:08.420Z,17.92
2018-03-25T12:10:40.967Z,19.45
2018-03-25T12:13:13.545Z,19.55
2018-03-25T12:15:46.125Z,18.42
2018-03-25T12:18:18.737Z,18.48
2018-03-25T12:20:51.321Z,17.42
2018-03-25T12:23:23.924Z,19.23
2018-03-25T12:25:56.488Z,17.80
2018-03-25T12:28:29.064Z,18.62
2018-03-25T12:31:01.620Z,17.45
2018-03-25T12:33:34.212Z,17.58
2018-03-25T12:36:06.770Z,18.05
2018-03-25T12:38:39.358Z,16.75
2018-03-25T12:41:11.931Z,19.00
2018-03-25T12:43:44.527Z,18.45
2018-03-25T12:46:17.097Z,17.65
2018-03-25T12:48:49.680Z,18.92
2018-03-25T12:51:22.256Z,18.58
2018-03-25T12:53:54.907Z,18.62
2018-03-25T12:56:27.477Z,17.30
2018-03-25T12:59:00.059Z,16.80
2018-03-25T13:01:32.610Z,19.23
2018-03-25T13:04:05.571Z,19.12
2018-03-25T13:06:38.179Z,19.30
2018-03-25T13:09:10.857Z,18.98
2018-03-25T13:11:43.435Z,18.35
2018-03-25T13:14:16.016Z,17.35
2018-03-25T13:16:48.687Z,17.85
2018-03-25T13:19:21.293Z,17.40
2018-03-25T13:21:53.861Z,16.85
2018-03-25T13:24:26.441Z,16.62
2018-03-25T13:26:59.010Z,17.02
2018-03-25T13:29:31.571Z,16.77
2018-03-25T13:32:04.146Z,16.42
2018-03-25T13:34:36.722Z,16.75
2018-03-25T13:37:09.276Z,16.15
2018-03-25T13:39:41.857Z,15.60
2018-03-25T13:42:14.416Z,14.77
2018-03-25T13:44:46.996Z,16.12
2018-03-25T13:47:19.539Z,15.60
2018-03-25T13:49:52.118Z,14.63
2018-03-25T13:52:24.684Z,14.95
2018-03-25T13:54:57.267Z,15.40
2018-03-25T13:57:29.837Z,15.85
2018-03-25T14:00:02.413Z,15.15
2018-03-25T14:02:34.984Z,15.27
2018-03-25T14:05:08.000Z,14.60
2018-03-25T14:07:40.553Z,14.60
2018-03-25T14:10:13.142Z,12.15
2018-03-25T14:12:45.704Z,13.98
2018-03-25T14:15:18.280Z,15.00
2018-03-25T14:17:50.813Z,15.50
2018-03-25T14:20:23.392Z,14.98
2018-03-25T14:22:55.944Z,15.25
2018-03-25T14:25:28.507Z,14.15
2018-03-25T14:28:01.082Z,14.32
2018-03-25T14:30:33.646Z,14.87
2018-03-25T14:33:06.228Z,14.77
2018-03-25T14:35:38.821Z,14.00
2018-03-25T14:38:11.370Z,13.60
2018-03-25T14:40:43.964Z,13.18
2018-03-25T14:43:16.537Z,14.70
2018-03-25T14:45:49.126Z,13.95
2018-03-25T14:48:21.700Z,13.82
2018-03-25T14:50:54.311Z,14.38
2018-03-25T14:53:26.879Z,14.93
2018-03-25T14:55:59.461Z,14.50
2018-03-25T14:58:32.015Z,14.85
2018-03-25T15:01:04.614Z,16.02
2018-03-25T15:03:37.188Z,14.43
2018-03-25T15:06:09.784Z,15.00
2018-03-25T15:08:42.359Z,13.93
2018-03-25T15:11:14.950Z,15.77
2018-03-25T15:13:47.492Z,16.05
2018-03-25T15:16:20.113Z,15.15
2018-03-25T15:18:52.678Z,15.25
2018-03-25T15:21:25.245Z,15.98
2018-03-25T15:23:57.807Z,15.75
2018-03-25T15:26:30.407Z,17.02
2018-03-25T15:29:02.988Z,18.33
2018-03-25T15:31:35.571Z,18.17
2018-03-25T15:34:08.173Z,18.23
2018-03-25T15:36:40.731Z,18.23
2018-03-25T15:39:13.351Z,16.80
2018-03-25T15:41:45.960Z,17.00
2018-03-25T15:44:18.507Z,20.17
2018-03-25T15:46:51.053Z,20.92
2018-03-25T15:49:23.631Z,22.17
2018-03-25T15:51:56.167Z,19.15
2018-03-25T15:54:28.727Z,17.87
2018-03-25T15:57:01.287Z,19.80
2018-03-25T15:59:33.860Z,19.98
2018-03-25T16:02:06.419Z,17.55
2018-03-25T16:04:38.988Z,17.58
2018-03-25T16:07:11.539Z,18.45
2018-03-25T16:09:44.133Z,17.15
2018-03-25T16:12:16.699Z,17.25
2018-03-25T16:14:49.297Z,16.60
2018-03-25T16:17:21.844Z,16.85
2018-03-25T16:19:54.425Z,17.60
2018-03-25T16:22:26.957Z,18.20
2018-03-25T16:24:59.521Z,16.57
2018-03-25T16:27:32.053Z,17.57
2018-03-25T16:30:04.611Z,17.73
2018-03-25T16:32:37.151Z,18.70
2018-03-25T16:35:09.727Z,19.73
2018-03-25T16:37:42.284Z,18.03
2018-03-25T16:40:14.865Z,17.63
2018-03-25T16:42:47.436Z,17.13
2018-03-25T16:45:20.012Z,19.33
2018-03-25T16:47:52.565Z,17.40
2018-03-25T16:50:25.116Z,16.83
2018-03-25T16:52:57.700Z,16.57
2018-03-25T16:55:30.277Z,17.87
2018-03-25T16:58:02.849Z,17.37
2018-03-25T17:00:35.440Z,16.90
2018-03-25T17:03:07.991Z,16.52
2018-03-25T17:05:40.577Z,17.27
2018-03-25T17:08:13.132Z,16.43
2018-03-25T17:10:45.691Z,17.87
2018-03-25T17:13:19.275Z,18.70
2018-03-25T17:15:51.824Z,17.20
2018-03-25T17:18:24.467Z,16.87
2018-03-25T17:20:57.066Z,16.57
2018-03-25T17:23:29.654Z,16.83
2018-03-25T17:26:02.182Z,16.07
2018-03-25T17:28:34.727Z,16.67
2018-03-25T17:31:07.311Z,16.73
2018-03-25T17:33:39.855Z,17.37
2018-03-25T17:36:12.454Z,16.03
2018-03-25T17:38:45.000Z,16.27
2018-03-25T17:41:18.973Z,16.17
2018-03-25T17:43:51.710Z,16.67
2018-03-25T17:46:24.279Z,16.57
2018-03-25T17:48:56.841Z,15.83
2018-03-25T17:51:29.393Z,16.30
2018-03-25T17:54:01.949Z,16.37
2018-03-25T17:59:13.193Z,16.43
2018-03-25T18:01:45.963Z,16.73
2018-03-25T18:04:18.504Z,17.07
2018-03-25T18:06:51.096Z,16.83
2018-03-25T18:09:23.674Z,16.70
2018-03-25T18:11:56.253Z,17.47
2018-03-25T18:14:28.833Z,17.70
2018-03-25T18:17:01.462Z,17.97
2018-03-25T18:19:34.023Z,18.67
2018-03-25T18:22:06.594Z,17.67
2018-03-25T18:24:39.158Z,18.20
2018-03-25T18:27:11.733Z,18.43
2018-03-25T18:29:44.298Z,16.40
2018-03-25T18:32:16.883Z,17.17
2018-03-25T18:34:49.420Z,17.73
2018-03-25T18:37:22.022Z,19.23
2018-03-25T18:39:54.583Z,18.40
2018-03-25T18:42:27.184Z,18.03
2018-03-25T18:44:59.730Z,18.33
2018-03-25T18:47:32.340Z,18.03
2018-03-25T18:50:04.916Z,17.10
2018-03-25T18:52:37.518Z,18.33
2018-03-25T18:55:10.095Z,17.73
2018-03-25T18:57:50.837Z,16.87
2018-03-25T19:00:24.234Z,17.30
2018-03-25T19:02:56.806Z,16.60
2018-03-25T19:05:29.485Z,16.40
2018-03-25T19:08:02.148Z,15.73
2018-03-25T19:10:34.729Z,16.90
2018-03-25T19:13:07.285Z,16.07
2018-03-25T19:15:39.882Z,17.03
2018-03-25T19:18:12.441Z,15.63
2018-03-25T19:20:45.024Z,18.20
2018-03-25T19:23:17.612Z,18.27
2018-03-25T19:25:50.329Z,18.10
2018-03-25T19:28:22.944Z,16.33
2018-03-25T19:30:55.537Z,18.70
2018-03-25T19:33:28.216Z,18.47
2018-03-25T19:36:00.813Z,20.30
2018-03-25T19:38:33.411Z,18.77
2018-03-25T19:41:05.996Z,17.87
2018-03-25T19:43:38.558Z,16.10
2018-03-25T19:46:11.153Z,18.67
2018-03-25T19:48:43.732Z,20.27
2018-03-25T19:51:16.348Z,19.27
2018-03-25T19:53:48.933Z,18.43
2018-03-25T19:56:23.895Z,19.00
2018-03-25T19:58:56.761Z,16.57
2018-03-25T20:01:30.938Z,17.13
2018-03-25T20:04:03.531Z,19.10
2018-03-25T20:06:36.126Z,18.87
2018-03-25T20:09:08.702Z,17.43
2018-03-25T20:11:41.503Z,18.77
2018-03-25T20:14:14.355Z,18.70
2018-03-25T20:16:46.955Z,17.27
2018-03-25T20:19:19.518Z,18.63
2018-03-25T20:21:52.110Z,19.53
2018-03-25T20:24:24.715Z,19.50
2018-03-25T20:26:57.321Z,19.40
2018-03-25T20:29:30.009Z,18.47
2018-03-25T20:32:02.683Z,18.87
2018-03-25T20:34:35.297Z,18.80
2018-03-25T20:37:07.895Z,20.57
2018-03-25T20:39:40.507Z,21.80
2018-03-25T20:42:13.124Z,19.07
2018-03-25T20:44:45.719Z,18.70
2018-03-25T20:47:18.309Z,18.73
2018-03-25T20:49:50.857Z,19.97
2018-03-25T20:52:23.450Z,18.33
2018-03-25T20:54:56.047Z,18.30
2018-03-25T20:57:28.647Z,17.80
2018-03-25T21:00:01.210Z,18.97
2018-03-25T21:02:33.784Z,18.63
2018-03-25T21:05:06.350Z,18.87
2018-03-25T21:07:38.931Z,20.67
2018-03-25T21:10:11.680Z,19.00
2018-03-25T21:12:44.286Z,20.47
2018-03-25T21:15:16.848Z,19.77
2018-03-25T21:17:49.423Z,19.20
2018-03-25T21:20:21.994Z,18.37
2018-03-25T21:22:54.593Z,16.73
2018-03-25T21:25:27.138Z,17.10
2018-03-25T21:27:59.743Z,18.93
2018-03-25T21:30:32.339Z,20.63
2018-03-25T21:33:04.933Z,19.17
2018-03-25T21:35:37.507Z,17.13
2018-03-25T21:38:13.095Z,18.60
2018-03-25T21:40:45.700Z,16.83
2018-03-25T21:43:18.492Z,17.83
2018-03-25T21:45:51.062Z,19.43
2018-03-25T21:48:23.670Z,19.20
2018-03-25T21:50:56.258Z,18.67
2018-03-25T21:53:28.834Z,17.70
2018-03-25T21:56:01.379Z,16.77
2018-03-25T21:58:34.022Z,16.90
2018-03-25T22:01:06.586Z,15.93
2018-03-25T22:03:39.180Z,15.33
2018-03-25T22:06:11.750Z,15.23
2018-03-25T22:08:44.329Z,15.00
2018-03-25T22:11:16.883Z,16.07
2018-03-25T22:13:49.453Z,15.07
2018-03-25T22:16:22.022Z,14.87
2018-03-25T22:19:00.605Z,17.17
2018-03-25T22:21:33.187Z,15.80
2018-03-25T22:24:05.741Z,15.97
2018-03-25T22:26:38.321Z,17.17
2018-03-25T22:29:10.904Z,15.67
2018-03-25T22:31:43.499Z,17.80
2018-03-25T22:34:16.087Z,16.77
2018-03-25T22:36:48.661Z,18.50
2018-03-25T22:39:21.652Z,16.90
2018-03-25T22:41:54.398Z,17.10
2018-03-25T22:44:26.968Z,16.53
2018-03-25T22:46:59.550Z,15.23
2018-03-25T22:49:32.130Z,14.83
2018-03-25T22:52:04.703Z,15.23
2018-03-25T22:54:37.265Z,16.53
2018-03-25T22:57:09.844Z,16.80
2018-03-25T22:59:42.456Z,15.67
2018-03-25T23:02:15.024Z,17.90
2018-03-25T23:04:47.606Z,16.07
2018-03-25T23:07:20.183Z,17.43
2018-03-25T23:09:52.727Z,15.73
2018-03-25T23:12:25.330Z,17.20
2018-03-25T23:14:57.870Z,16.87
2018-03-25T23:17:30.443Z,17.30
2018-03-25T23:20:02.967Z,14.83
2018-03-25T23:22:35.558Z,17.13
2018-03-25T23:25:08.124Z,16.73
2018-03-25T23:27:40.740Z,17.27
2018-03-25T23:30:13.287Z,17.20
2018-03-25T23:32:45.888Z,15.30
2018-03-25T23:35:18.424Z,14.90
2018-03-25T23:37:50.996Z,15.70
2018-03-25T23:40:23.548Z,14.97
2018-03-25T23:42:56.128Z,15.47
2018-03-25T23:45:28.663Z,15.87
2018-03-25T23:48:01.224Z,16.43
2018-03-25T23:50:33.789Z,15.03
2018-03-25T23:53:06.415Z,15.53
2018-03-25T23:55:38.983Z,14.57
2018-03-25T23:58:11.568Z,15.00
